sensor_id;sensor_type;location;lat;lon;timestamp;temperature;humidity
32706;DHT22;19094;50.972;3.538;2023-04-15T00:01:22;15.70;55.30
32706;DHT22;19094;50.972;3.538;2023-04-15T00:03:50;15.70;55.40
32706;DHT22;19094;50.972;3.538;2023-04-15T00:06:17;15.70;55.30
32706;DHT22;19094;50.972;3.538;2023-04-15T00:08:44;15.70;55.40
32706;DHT22;19094;50.972;3.538;2023-04-15T00:11:10;15.70;55.60
32706;DHT22;19094;50.972;3.538;2023-04-15T00:13:35;15.60;55.70
32706;DHT22;19094;50.972;3.538;2023-04-15T00:16:02;15.60;55.90
32706;DHT22;19094;50.972;3.538;2023-04-15T00:18:28;15.60;55.90
32706;DHT22;19094;50.972;3.538;2023-04-15T00:20:56;15.60;56.00
32706;DHT22;19094;50.972;3.538;2023-04-15T00:23:23;15.70;55.90
32706;DHT22;19094;50.972;3.538;2023-04-15T00:25:48;15.60;56.10
32706;DHT22;19094;50.972;3.538;2023-04-15T00:28:15;15.60;56.10
32706;DHT22;19094;50.972;3.538;2023-04-15T00:30:41;15.60;56.20
32706;DHT22;19094;50.972;3.538;2023-04-15T00:33:06;15.60;56.10
32706;DHT22;19094;50.972;3.538;2023-04-15T00:35:33;15.70;56.50
32706;DHT22;19094;50.972;3.538;2023-04-15T00:37:59;15.80;56.30
32706;DHT22;19094;50.972;3.538;2023-04-15T00:40:25;15.80;56.20
32706;DHT22;19094;50.972;3.538;2023-04-15T00:42:51;15.80;56.20
32706;DHT22;19094;50.972;3.538;2023-04-15T00:45:17;15.80;56.40
32706;DHT22;19094;50.972;3.538;2023-04-15T00:47:43;15.70;56.30
32706;DHT22;19094;50.972;3.538;2023-04-15T00:50:10;15.70;56.50
32706;DHT22;19094;50.972;3.538;2023-04-15T00:52:37;15.70;56.70
32706;DHT22;19094;50.972;3.538;2023-04-15T00:55:04;15.70;56.80
32706;DHT22;19094;50.972;3.538;2023-04-15T00:57:30;15.60;57.20
32706;DHT22;19094;50.972;3.538;2023-04-15T00:59:56;15.60;56.80
32706;DHT22;19094;50.972;3.538;2023-04-15T01:02:23;15.60;56.60
32706;DHT22;19094;50.972;3.538;2023-04-15T01:04:48;15.50;56.70
32706;DHT22;19094;50.972;3.538;2023-04-15T01:07:14;15.40;56.70
32706;DHT22;19094;50.972;3.538;2023-04-15T01:09:40;15.50;56.80
32706;DHT22;19094;50.972;3.538;2023-04-15T01:12:07;15.50;56.60
32706;DHT22;19094;50.972;3.538;2023-04-15T01:14:34;15.50;56.70
32706;DHT22;19094;50.972;3.538;2023-04-15T01:17:00;15.40;56.60
32706;DHT22;19094;50.972;3.538;2023-04-15T01:19:26;15.40;56.80
32706;DHT22;19094;50.972;3.538;2023-04-15T01:21:53;15.40;57.40
32706;DHT22;19094;50.972;3.538;2023-04-15T01:24:18;15.40;56.70
32706;DHT22;19094;50.972;3.538;2023-04-15T01:26:44;15.40;56.80
32706;DHT22;19094;50.972;3.538;2023-04-15T01:29:11;15.50;56.90
32706;DHT22;19094;50.972;3.538;2023-04-15T01:31:36;15.40;56.80
32706;DHT22;19094;50.972;3.538;2023-04-15T01:34:02;15.40;57.00
32706;DHT22;19094;50.972;3.538;2023-04-15T01:36:28;15.40;57.00
32706;DHT22;19094;50.972;3.538;2023-04-15T01:38:55;15.40;57.00
32706;DHT22;19094;50.972;3.538;2023-04-15T01:41:25;15.40;57.00
32706;DHT22;19094;50.972;3.538;2023-04-15T01:43:51;15.40;57.20
32706;DHT22;19094;50.972;3.538;2023-04-15T01:46:17;15.40;57.20
32706;DHT22;19094;50.972;3.538;2023-04-15T01:48:43;15.30;57.30
32706;DHT22;19094;50.972;3.538;2023-04-15T01:51:09;15.30;57.40
32706;DHT22;19094;50.972;3.538;2023-04-15T01:53:34;15.30;57.40
32706;DHT22;19094;50.972;3.538;2023-04-15T01:56:00;15.30;57.30
32706;DHT22;19094;50.972;3.538;2023-04-15T01:58:26;15.30;57.50
32706;DHT22;19094;50.972;3.538;2023-04-15T02:00:52;15.30;57.60
32706;DHT22;19094;50.972;3.538;2023-04-15T02:03:18;15.30;57.60
32706;DHT22;19094;50.972;3.538;2023-04-15T02:05:43;15.30;58.00
32706;DHT22;19094;50.972;3.538;2023-04-15T02:08:09;15.30;58.10
32706;DHT22;19094;50.972;3.538;2023-04-15T02:10:34;15.40;57.80
32706;DHT22;19094;50.972;3.538;2023-04-15T02:13:00;15.40;57.90
32706;DHT22;19094;50.972;3.538;2023-04-15T02:15:26;15.30;58.10
32706;DHT22;19094;50.972;3.538;2023-04-15T02:17:52;15.30;58.20
32706;DHT22;19094;50.972;3.538;2023-04-15T02:20:20;15.30;58.30
32706;DHT22;19094;50.972;3.538;2023-04-15T02:22:46;15.30;58.50
32706;DHT22;19094;50.972;3.538;2023-04-15T02:25:13;15.30;59.00
32706;DHT22;19094;50.972;3.538;2023-04-15T02:27:39;15.20;58.60
32706;DHT22;19094;50.972;3.538;2023-04-15T02:30:05;15.20;58.60
32706;DHT22;19094;50.972;3.538;2023-04-15T02:32:32;15.10;58.50
32706;DHT22;19094;50.972;3.538;2023-04-15T02:35:07;15.10;59.40
32706;DHT22;19094;50.972;3.538;2023-04-15T02:37:34;15.10;58.70
32706;DHT22;19094;50.972;3.538;2023-04-15T02:40:08;15.10;58.60
32706;DHT22;19094;50.972;3.538;2023-04-15T02:42:41;15.10;58.70
32706;DHT22;19094;50.972;3.538;2023-04-15T02:45:07;15.10;58.70
32706;DHT22;19094;50.972;3.538;2023-04-15T02:47:33;15.10;58.70
32706;DHT22;19094;50.972;3.538;2023-04-15T02:50:03;15.10;58.70
32706;DHT22;19094;50.972;3.538;2023-04-15T02:52:29;15.10;58.80
32706;DHT22;19094;50.972;3.538;2023-04-15T02:54:55;15.00;58.80
32706;DHT22;19094;50.972;3.538;2023-04-15T02:57:25;15.10;58.80
32706;DHT22;19094;50.972;3.538;2023-04-15T02:59:52;15.10;58.80
32706;DHT22;19094;50.972;3.538;2023-04-15T03:02:17;15.10;58.70
32706;DHT22;19094;50.972;3.538;2023-04-15T03:04:43;15.10;58.70
32706;DHT22;19094;50.972;3.538;2023-04-15T03:07:08;15.10;58.80
32706;DHT22;19094;50.972;3.538;2023-04-15T03:09:34;15.10;58.90
32706;DHT22;19094;50.972;3.538;2023-04-15T03:12:01;15.10;58.80
32706;DHT22;19094;50.972;3.538;2023-04-15T03:14:26;15.10;58.90
32706;DHT22;19094;50.972;3.538;2023-04-15T03:16:52;15.10;58.90
32706;DHT22;19094;50.972;3.538;2023-04-15T03:19:18;15.00;59.00
32706;DHT22;19094;50.972;3.538;2023-04-15T03:21:43;15.00;59.20
32706;DHT22;19094;50.972;3.538;2023-04-15T03:24:09;15.00;59.10
32706;DHT22;19094;50.972;3.538;2023-04-15T03:26:35;15.00;59.10
32706;DHT22;19094;50.972;3.538;2023-04-15T03:29:00;15.00;59.20
32706;DHT22;19094;50.972;3.538;2023-04-15T03:31:26;15.00;59.20
32706;DHT22;19094;50.972;3.538;2023-04-15T03:33:52;15.00;59.30
32706;DHT22;19094;50.972;3.538;2023-04-15T03:36:17;15.00;59.80
32706;DHT22;19094;50.972;3.538;2023-04-15T03:38:43;15.10;59.60
32706;DHT22;19094;50.972;3.538;2023-04-15T03:41:09;15.10;59.30
32706;DHT22;19094;50.972;3.538;2023-04-15T03:43:34;15.10;59.40
32706;DHT22;19094;50.972;3.538;2023-04-15T03:46:00;15.00;59.40
32706;DHT22;19094;50.972;3.538;2023-04-15T03:48:26;15.00;59.60
32706;DHT22;19094;50.972;3.538;2023-04-15T03:50:52;15.00;59.80
32706;DHT22;19094;50.972;3.538;2023-04-15T03:53:17;14.90;59.80
32706;DHT22;19094;50.972;3.538;2023-04-15T03:55:43;14.90;59.80
32706;DHT22;19094;50.972;3.538;2023-04-15T03:58:09;14.90;60.00
32706;DHT22;19094;50.972;3.538;2023-04-15T04:00:37;14.90;60.00
32706;DHT22;19094;50.972;3.538;2023-04-15T04:03:03;14.90;60.10
32706;DHT22;19094;50.972;3.538;2023-04-15T04:05:29;14.80;59.90
32706;DHT22;19094;50.972;3.538;2023-04-15T04:07:55;14.90;59.90
32706;DHT22;19094;50.972;3.538;2023-04-15T04:10:20;14.90;59.90
32706;DHT22;19094;50.972;3.538;2023-04-15T04:12:46;14.90;60.30
32706;DHT22;19094;50.972;3.538;2023-04-15T04:15:12;14.90;60.10
32706;DHT22;19094;50.972;3.538;2023-04-15T04:17:37;14.90;59.80
32706;DHT22;19094;50.972;3.538;2023-04-15T04:20:03;14.90;59.90
32706;DHT22;19094;50.972;3.538;2023-04-15T04:22:30;14.90;59.90
32706;DHT22;19094;50.972;3.538;2023-04-15T04:24:55;14.90;60.20
32706;DHT22;19094;50.972;3.538;2023-04-15T04:27:23;14.90;60.00
32706;DHT22;19094;50.972;3.538;2023-04-15T04:29:49;14.90;60.20
32706;DHT22;19094;50.972;3.538;2023-04-15T04:32:15;14.90;60.00
32706;DHT22;19094;50.972;3.538;2023-04-15T04:34:41;14.90;60.40
32706;DHT22;19094;50.972;3.538;2023-04-15T04:37:06;14.90;60.10
32706;DHT22;19094;50.972;3.538;2023-04-15T04:39:32;14.90;60.00
32706;DHT22;19094;50.972;3.538;2023-04-15T04:41:58;14.90;60.00
32706;DHT22;19094;50.972;3.538;2023-04-15T04:44:23;14.90;59.90
32706;DHT22;19094;50.972;3.538;2023-04-15T04:46:49;14.90;59.70
32706;DHT22;19094;50.972;3.538;2023-04-15T04:49:15;14.90;59.70
32706;DHT22;19094;50.972;3.538;2023-04-15T04:51:40;14.90;59.80
32706;DHT22;19094;50.972;3.538;2023-04-15T04:54:06;14.90;59.70
32706;DHT22;19094;50.972;3.538;2023-04-15T04:56:32;14.90;59.90
32706;DHT22;19094;50.972;3.538;2023-04-15T04:58:59;14.90;59.80
32706;DHT22;19094;50.972;3.538;2023-04-15T05:01:24;14.90;59.80
32706;DHT22;19094;50.972;3.538;2023-04-15T05:03:52;14.90;59.90
32706;DHT22;19094;50.972;3.538;2023-04-15T05:06:17;14.90;59.90
32706;DHT22;19094;50.972;3.538;2023-04-15T05:08:43;14.90;59.90
32706;DHT22;19094;50.972;3.538;2023-04-15T05:11:08;14.90;59.90
32706;DHT22;19094;50.972;3.538;2023-04-15T05:13:34;14.90;60.00
32706;DHT22;19094;50.972;3.538;2023-04-15T05:16:06;14.90;60.30
32706;DHT22;19094;50.972;3.538;2023-04-15T05:18:31;14.90;60.40
32706;DHT22;19094;50.972;3.538;2023-04-15T05:20:58;14.90;60.30
32706;DHT22;19094;50.972;3.538;2023-04-15T05:23:23;14.90;60.50
32706;DHT22;19094;50.972;3.538;2023-04-15T05:25:49;14.80;60.60
32706;DHT22;19094;50.972;3.538;2023-04-15T05:28:15;14.80;60.70
32706;DHT22;19094;50.972;3.538;2023-04-15T05:30:41;14.80;60.80
32706;DHT22;19094;50.972;3.538;2023-04-15T05:33:07;14.80;60.80
32706;DHT22;19094;50.972;3.538;2023-04-15T05:35:33;14.70;60.90
32706;DHT22;19094;50.972;3.538;2023-04-15T05:37:58;14.70;60.90
32706;DHT22;19094;50.972;3.538;2023-04-15T05:40:24;14.70;60.90
32706;DHT22;19094;50.972;3.538;2023-04-15T05:42:49;14.70;60.90
32706;DHT22;19094;50.972;3.538;2023-04-15T05:45:15;14.70;60.90
32706;DHT22;19094;50.972;3.538;2023-04-15T05:47:41;14.70;61.00
32706;DHT22;19094;50.972;3.538;2023-04-15T05:50:07;14.70;60.90
32706;DHT22;19094;50.972;3.538;2023-04-15T05:52:32;14.70;60.80
32706;DHT22;19094;50.972;3.538;2023-04-15T05:54:58;14.80;60.60
32706;DHT22;19094;50.972;3.538;2023-04-15T05:57:23;14.80;60.70
32706;DHT22;19094;50.972;3.538;2023-04-15T05:59:49;14.80;60.70
32706;DHT22;19094;50.972;3.538;2023-04-15T06:02:17;14.70;60.70
32706;DHT22;19094;50.972;3.538;2023-04-15T06:04:43;14.80;61.50
32706;DHT22;19094;50.972;3.538;2023-04-15T06:07:08;14.80;60.60
32706;DHT22;19094;50.972;3.538;2023-04-15T06:09:34;14.80;60.70
32706;DHT22;19094;50.972;3.538;2023-04-15T06:12:00;14.80;60.90
32706;DHT22;19094;50.972;3.538;2023-04-15T06:14:26;14.80;61.00
32706;DHT22;19094;50.972;3.538;2023-04-15T06:16:52;14.80;60.90
32706;DHT22;19094;50.972;3.538;2023-04-15T06:19:17;14.80;60.70
32706;DHT22;19094;50.972;3.538;2023-04-15T06:21:44;14.80;60.70
32706;DHT22;19094;50.972;3.538;2023-04-15T06:24:10;14.80;60.70
32706;DHT22;19094;50.972;3.538;2023-04-15T06:26:36;14.80;61.00
32706;DHT22;19094;50.972;3.538;2023-04-15T06:29:02;14.80;61.00
32706;DHT22;19094;50.972;3.538;2023-04-15T06:31:27;14.80;61.00
32706;DHT22;19094;50.972;3.538;2023-04-15T06:33:53;14.70;60.80
32706;DHT22;19094;50.972;3.538;2023-04-15T06:36:19;14.80;61.10
32706;DHT22;19094;50.972;3.538;2023-04-15T06:38:44;14.80;61.10
32706;DHT22;19094;50.972;3.538;2023-04-15T06:41:10;14.80;61.20
32706;DHT22;19094;50.972;3.538;2023-04-15T06:43:35;14.70;61.10
32706;DHT22;19094;50.972;3.538;2023-04-15T06:46:01;14.70;61.70
32706;DHT22;19094;50.972;3.538;2023-04-15T06:48:27;14.80;61.90
32706;DHT22;19094;50.972;3.538;2023-04-15T06:50:52;14.80;61.70
32706;DHT22;19094;50.972;3.538;2023-04-15T06:53:18;14.90;62.60
32706;DHT22;19094;50.972;3.538;2023-04-15T06:55:44;14.80;61.80
32706;DHT22;19094;50.972;3.538;2023-04-15T06:58:09;14.90;61.60
32706;DHT22;19094;50.972;3.538;2023-04-15T07:00:35;14.90;61.90
32706;DHT22;19094;50.972;3.538;2023-04-15T07:03:03;14.80;61.50
32706;DHT22;19094;50.972;3.538;2023-04-15T07:05:29;14.80;61.60
32706;DHT22;19094;50.972;3.538;2023-04-15T07:07:56;14.80;61.80
32706;DHT22;19094;50.972;3.538;2023-04-15T07:10:22;14.80;61.80
32706;DHT22;19094;50.972;3.538;2023-04-15T07:12:48;14.80;61.70
32706;DHT22;19094;50.972;3.538;2023-04-15T07:15:15;14.80;61.50
32706;DHT22;19094;50.972;3.538;2023-04-15T07:17:41;14.80;61.60
32706;DHT22;19094;50.972;3.538;2023-04-15T07:20:08;14.80;61.40
32706;DHT22;19094;50.972;3.538;2023-04-15T07:22:33;14.90;61.30
32706;DHT22;19094;50.972;3.538;2023-04-15T07:24:59;14.80;61.30
32706;DHT22;19094;50.972;3.538;2023-04-15T07:27:25;14.90;61.20
32706;DHT22;19094;50.972;3.538;2023-04-15T07:29:51;14.80;61.20
32706;DHT22;19094;50.972;3.538;2023-04-15T07:32:17;14.90;61.50
32706;DHT22;19094;50.972;3.538;2023-04-15T07:34:43;14.90;61.20
32706;DHT22;19094;50.972;3.538;2023-04-15T07:37:09;14.90;61.60
32706;DHT22;19094;50.972;3.538;2023-04-15T07:39:35;14.90;61.50
32706;DHT22;19094;50.972;3.538;2023-04-15T07:42:01;14.90;61.50
32706;DHT22;19094;50.972;3.538;2023-04-15T07:44:28;14.90;61.30
32706;DHT22;19094;50.972;3.538;2023-04-15T07:46:54;14.90;61.30
32706;DHT22;19094;50.972;3.538;2023-04-15T07:49:20;14.90;61.50
32706;DHT22;19094;50.972;3.538;2023-04-15T07:51:46;15.00;61.40
32706;DHT22;19094;50.972;3.538;2023-04-15T07:54:11;14.90;61.40
32706;DHT22;19094;50.972;3.538;2023-04-15T07:56:37;15.00;61.20
32706;DHT22;19094;50.972;3.538;2023-04-15T07:59:03;15.00;61.20
32706;DHT22;19094;50.972;3.538;2023-04-15T08:01:30;15.00;61.20
32706;DHT22;19094;50.972;3.538;2023-04-15T08:03:57;15.10;61.30
32706;DHT22;19094;50.972;3.538;2023-04-15T08:06:23;15.00;61.20
32706;DHT22;19094;50.972;3.538;2023-04-15T08:08:49;15.10;60.90
32706;DHT22;19094;50.972;3.538;2023-04-15T08:11:15;15.10;60.60
32706;DHT22;19094;50.972;3.538;2023-04-15T08:13:41;15.20;60.40
32706;DHT22;19094;50.972;3.538;2023-04-15T08:16:20;15.20;60.20
32706;DHT22;19094;50.972;3.538;2023-04-15T08:18:48;15.20;59.90
32706;DHT22;19094;50.972;3.538;2023-04-15T08:21:14;15.20;60.10
32706;DHT22;19094;50.972;3.538;2023-04-15T08:23:40;15.20;60.00
32706;DHT22;19094;50.972;3.538;2023-04-15T08:26:07;15.20;60.00
32706;DHT22;19094;50.972;3.538;2023-04-15T08:28:33;15.20;59.80
32706;DHT22;19094;50.972;3.538;2023-04-15T08:30:59;15.30;59.80
32706;DHT22;19094;50.972;3.538;2023-04-15T08:33:25;15.30;59.80
32706;DHT22;19094;50.972;3.538;2023-04-15T08:35:50;15.30;59.70
32706;DHT22;19094;50.972;3.538;2023-04-15T08:38:16;15.20;59.60
32706;DHT22;19094;50.972;3.538;2023-04-15T08:40:44;15.30;59.70
32706;DHT22;19094;50.972;3.538;2023-04-15T08:43:20;15.30;59.90
32706;DHT22;19094;50.972;3.538;2023-04-15T08:45:49;15.30;59.60
32706;DHT22;19094;50.972;3.538;2023-04-15T08:48:16;15.30;59.60
32706;DHT22;19094;50.972;3.538;2023-04-15T08:50:42;15.30;59.50
32706;DHT22;19094;50.972;3.538;2023-04-15T08:53:10;15.40;59.40
32706;DHT22;19094;50.972;3.538;2023-04-15T08:55:45;15.40;59.30
32706;DHT22;19094;50.972;3.538;2023-04-15T08:58:12;15.50;59.20
32706;DHT22;19094;50.972;3.538;2023-04-15T09:00:39;15.50;59.00
32706;DHT22;19094;50.972;3.538;2023-04-15T09:03:05;15.60;58.90
32706;DHT22;19094;50.972;3.538;2023-04-15T09:05:32;15.60;59.00
32706;DHT22;19094;50.972;3.538;2023-04-15T09:07:59;15.60;58.90
32706;DHT22;19094;50.972;3.538;2023-04-15T09:10:24;15.60;58.70
32706;DHT22;19094;50.972;3.538;2023-04-15T09:12:50;15.60;58.60
32706;DHT22;19094;50.972;3.538;2023-04-15T09:15:16;15.70;58.80
32706;DHT22;19094;50.972;3.538;2023-04-15T09:17:43;15.80;58.60
32706;DHT22;19094;50.972;3.538;2023-04-15T09:20:11;15.80;58.50
32706;DHT22;19094;50.972;3.538;2023-04-15T09:22:38;15.90;58.70
32706;DHT22;19094;50.972;3.538;2023-04-15T09:25:28;15.90;58.30
32706;DHT22;19094;50.972;3.538;2023-04-15T09:27:56;15.80;58.00
32706;DHT22;19094;50.972;3.538;2023-04-15T09:30:22;16.00;58.00
32706;DHT22;19094;50.972;3.538;2023-04-15T09:32:59;16.00;57.50
32706;DHT22;19094;50.972;3.538;2023-04-15T09:35:26;16.30;57.20
32706;DHT22;19094;50.972;3.538;2023-04-15T09:38:04;16.50;56.70
32706;DHT22;19094;50.972;3.538;2023-04-15T09:40:38;16.60;56.20
32706;DHT22;19094;50.972;3.538;2023-04-15T09:43:05;16.70;56.10
32706;DHT22;19094;50.972;3.538;2023-04-15T09:45:32;16.70;55.90
32706;DHT22;19094;50.972;3.538;2023-04-15T09:48:14;16.80;55.70
32706;DHT22;19094;50.972;3.538;2023-04-15T09:50:41;16.90;55.60
32706;DHT22;19094;50.972;3.538;2023-04-15T09:53:10;16.90;55.40
32706;DHT22;19094;50.972;3.538;2023-04-15T09:55:37;16.90;55.60
32706;DHT22;19094;50.972;3.538;2023-04-15T09:58:08;17.00;55.40
32706;DHT22;19094;50.972;3.538;2023-04-15T10:00:35;17.00;55.30
32706;DHT22;19094;50.972;3.538;2023-04-15T10:03:04;17.10;55.00
32706;DHT22;19094;50.972;3.538;2023-04-15T10:05:30;17.10;55.00
32706;DHT22;19094;50.972;3.538;2023-04-15T10:07:56;17.10;54.70
32706;DHT22;19094;50.972;3.538;2023-04-15T10:10:22;17.10;54.80
32706;DHT22;19094;50.972;3.538;2023-04-15T10:12:48;17.10;54.60
32706;DHT22;19094;50.972;3.538;2023-04-15T10:15:15;17.20;54.70
32706;DHT22;19094;50.972;3.538;2023-04-15T10:17:43;17.20;54.70
32706;DHT22;19094;50.972;3.538;2023-04-15T10:20:09;17.20;54.60
32706;DHT22;19094;50.972;3.538;2023-04-15T10:22:37;17.10;55.30
32706;DHT22;19094;50.972;3.538;2023-04-15T10:25:04;17.10;55.30
32706;DHT22;19094;50.972;3.538;2023-04-15T10:27:30;17.30;55.00
32706;DHT22;19094;50.972;3.538;2023-04-15T10:29:59;17.40;54.40
32706;DHT22;19094;50.972;3.538;2023-04-15T10:32:26;17.40;54.60
32706;DHT22;19094;50.972;3.538;2023-04-15T10:34:53;17.40;54.40
32706;DHT22;19094;50.972;3.538;2023-04-15T10:37:21;17.50;54.10
32706;DHT22;19094;50.972;3.538;2023-04-15T10:39:47;17.50;53.90
32706;DHT22;19094;50.972;3.538;2023-04-15T10:42:14;17.60;53.90
32706;DHT22;19094;50.972;3.538;2023-04-15T10:44:44;17.60;54.00
32706;DHT22;19094;50.972;3.538;2023-04-15T10:47:15;17.70;53.80
32706;DHT22;19094;50.972;3.538;2023-04-15T10:50:09;17.70;53.70
32706;DHT22;19094;50.972;3.538;2023-04-15T10:52:39;17.70;53.30
32706;DHT22;19094;50.972;3.538;2023-04-15T10:55:14;17.80;53.30
32706;DHT22;19094;50.972;3.538;2023-04-15T10:57:43;17.80;53.20
32706;DHT22;19094;50.972;3.538;2023-04-15T11:00:11;17.80;53.00
32706;DHT22;19094;50.972;3.538;2023-04-15T11:05:07;17.90;53.30
32706;DHT22;19094;50.972;3.538;2023-04-15T11:12:43;18.10;52.20
32706;DHT22;19094;50.972;3.538;2023-04-15T11:18:25;18.20;51.80
32706;DHT22;19094;50.972;3.538;2023-04-15T11:21:06;18.30;51.90
32706;DHT22;19094;50.972;3.538;2023-04-15T11:23:42;18.30;52.30
32706;DHT22;19094;50.972;3.538;2023-04-15T11:26:11;18.40;51.60
32706;DHT22;19094;50.972;3.538;2023-04-15T11:28:41;18.40;51.50
32706;DHT22;19094;50.972;3.538;2023-04-15T11:31:12;18.50;52.00
32706;DHT22;19094;50.972;3.538;2023-04-15T11:33:58;18.50;54.10
32706;DHT22;19094;50.972;3.538;2023-04-15T11:36:25;18.60;53.90
32706;DHT22;19094;50.972;3.538;2023-04-15T11:38:52;18.70;53.70
32706;DHT22;19094;50.972;3.538;2023-04-15T11:41:22;18.80;53.00
32706;DHT22;19094;50.972;3.538;2023-04-15T11:43:48;18.80;53.50
32706;DHT22;19094;50.972;3.538;2023-04-15T11:46:14;18.80;52.90
32706;DHT22;19094;50.972;3.538;2023-04-15T11:48:44;18.80;52.70
32706;DHT22;19094;50.972;3.538;2023-04-15T11:51:10;18.80;52.70
32706;DHT22;19094;50.972;3.538;2023-04-15T11:53:43;18.80;52.60
32706;DHT22;19094;50.972;3.538;2023-04-15T11:56:15;18.80;52.50
32706;DHT22;19094;50.972;3.538;2023-04-15T11:58:41;18.80;52.40
32706;DHT22;19094;50.972;3.538;2023-04-15T12:01:08;18.90;52.00
32706;DHT22;19094;50.972;3.538;2023-04-15T12:03:44;18.90;51.30
32706;DHT22;19094;50.972;3.538;2023-04-15T12:16:51;19.20;49.00
32706;DHT22;19094;50.972;3.538;2023-04-15T12:22:14;19.20;48.60
32706;DHT22;19094;50.972;3.538;2023-04-15T12:24:41;19.30;48.30
32706;DHT22;19094;50.972;3.538;2023-04-15T12:27:13;19.30;47.90
32706;DHT22;19094;50.972;3.538;2023-04-15T12:29:41;19.40;47.60
32706;DHT22;19094;50.972;3.538;2023-04-15T12:32:11;19.40;47.40
32706;DHT22;19094;50.972;3.538;2023-04-15T12:34:48;19.50;47.20
32706;DHT22;19094;50.972;3.538;2023-04-15T12:37:14;19.50;46.80
32706;DHT22;19094;50.972;3.538;2023-04-15T12:39:42;19.60;46.70
32706;DHT22;19094;50.972;3.538;2023-04-15T12:42:09;19.60;46.60
32706;DHT22;19094;50.972;3.538;2023-04-15T12:44:35;19.60;46.60
32706;DHT22;19094;50.972;3.538;2023-04-15T12:47:01;19.70;46.40
32706;DHT22;19094;50.972;3.538;2023-04-15T12:49:28;19.70;46.30
32706;DHT22;19094;50.972;3.538;2023-04-15T12:51:57;19.70;46.30
32706;DHT22;19094;50.972;3.538;2023-04-15T12:54:27;19.70;46.20
32706;DHT22;19094;50.972;3.538;2023-04-15T12:56:53;19.80;46.10
32706;DHT22;19094;50.972;3.538;2023-04-15T12:59:19;19.90;46.00
32706;DHT22;19094;50.972;3.538;2023-04-15T13:01:46;20.00;45.80
32706;DHT22;19094;50.972;3.538;2023-04-15T13:04:13;20.00;45.70
32706;DHT22;19094;50.972;3.538;2023-04-15T13:06:39;20.00;45.80
32706;DHT22;19094;50.972;3.538;2023-04-15T13:09:04;20.00;45.70
32706;DHT22;19094;50.972;3.538;2023-04-15T13:11:31;20.00;45.70
32706;DHT22;19094;50.972;3.538;2023-04-15T13:13:59;20.10;45.60
32706;DHT22;19094;50.972;3.538;2023-04-15T13:16:25;20.20;45.20
32706;DHT22;19094;50.972;3.538;2023-04-15T13:18:50;20.20;45.30
32706;DHT22;19094;50.972;3.538;2023-04-15T13:21:17;20.20;45.30
32706;DHT22;19094;50.972;3.538;2023-04-15T13:23:43;20.20;45.30
32706;DHT22;19094;50.972;3.538;2023-04-15T13:26:08;20.30;45.30
32706;DHT22;19094;50.972;3.538;2023-04-15T13:28:34;20.30;45.20
32706;DHT22;19094;50.972;3.538;2023-04-15T13:31:00;20.40;44.90
32706;DHT22;19094;50.972;3.538;2023-04-15T13:33:26;20.50;44.50
32706;DHT22;19094;50.972;3.538;2023-04-15T13:35:53;20.40;44.60
32706;DHT22;19094;50.972;3.538;2023-04-15T13:38:19;20.40;44.70
32706;DHT22;19094;50.972;3.538;2023-04-15T13:40:45;20.40;44.70
32706;DHT22;19094;50.972;3.538;2023-04-15T13:43:10;20.40;44.70
32706;DHT22;19094;50.972;3.538;2023-04-15T13:45:36;20.40;44.30
32706;DHT22;19094;50.972;3.538;2023-04-15T13:48:03;20.40;44.60
32706;DHT22;19094;50.972;3.538;2023-04-15T13:50:28;20.40;44.40
32706;DHT22;19094;50.972;3.538;2023-04-15T13:52:54;20.40;44.20
32706;DHT22;19094;50.972;3.538;2023-04-15T13:55:20;20.50;44.30
32706;DHT22;19094;50.972;3.538;2023-04-15T13:57:45;20.60;44.00
32706;DHT22;19094;50.972;3.538;2023-04-15T14:00:11;20.70;43.80
32706;DHT22;19094;50.972;3.538;2023-04-15T14:02:39;20.80;43.60
32706;DHT22;19094;50.972;3.538;2023-04-15T14:05:05;20.80;43.60
32706;DHT22;19094;50.972;3.538;2023-04-15T14:07:31;20.70;43.80
32706;DHT22;19094;50.972;3.538;2023-04-15T14:09:57;20.80;44.00
32706;DHT22;19094;50.972;3.538;2023-04-15T14:12:22;20.80;44.00
32706;DHT22;19094;50.972;3.538;2023-04-15T14:14:48;20.40;43.20
32706;DHT22;19094;50.972;3.538;2023-04-15T14:17:13;20.30;44.10
32706;DHT22;19094;50.972;3.538;2023-04-15T14:19:39;20.60;43.70
32706;DHT22;19094;50.972;3.538;2023-04-15T14:22:05;20.90;43.30
32706;DHT22;19094;50.972;3.538;2023-04-15T14:24:30;21.00;43.00
32706;DHT22;19094;50.972;3.538;2023-04-15T14:26:57;21.10;43.00
32706;DHT22;19094;50.972;3.538;2023-04-15T14:29:23;21.10;43.30
32706;DHT22;19094;50.972;3.538;2023-04-15T14:31:49;21.20;43.20
32706;DHT22;19094;50.972;3.538;2023-04-15T14:34:15;21.20;43.10
32706;DHT22;19094;50.972;3.538;2023-04-15T14:36:42;21.30;43.10
32706;DHT22;19094;50.972;3.538;2023-04-15T14:39:08;21.40;43.10
32706;DHT22;19094;50.972;3.538;2023-04-15T14:41:33;21.30;43.20
32706;DHT22;19094;50.972;3.538;2023-04-15T14:43:59;21.50;43.20
32706;DHT22;19094;50.972;3.538;2023-04-15T14:46:25;21.60;42.90
32706;DHT22;19094;50.972;3.538;2023-04-15T14:48:51;21.70;42.80
32706;DHT22;19094;50.972;3.538;2023-04-15T14:51:17;21.90;42.50
32706;DHT22;19094;50.972;3.538;2023-04-15T14:53:44;22.00;41.90
32706;DHT22;19094;50.972;3.538;2023-04-15T14:56:10;22.10;41.90
32706;DHT22;19094;50.972;3.538;2023-04-15T14:58:35;22.20;41.80
32706;DHT22;19094;50.972;3.538;2023-04-15T15:01:02;22.20;41.70
32706;DHT22;19094;50.972;3.538;2023-04-15T15:03:28;22.30;41.80
32706;DHT22;19094;50.972;3.538;2023-04-15T15:05:54;22.30;41.40
32706;DHT22;19094;50.972;3.538;2023-04-15T15:08:22;22.30;41.30
32706;DHT22;19094;50.972;3.538;2023-04-15T15:10:48;22.40;41.60
32706;DHT22;19094;50.972;3.538;2023-04-15T15:13:13;22.30;40.70
32706;DHT22;19094;50.972;3.538;2023-04-15T15:15:40;22.60;40.50
32706;DHT22;19094;50.972;3.538;2023-04-15T15:18:05;22.60;40.10
32706;DHT22;19094;50.972;3.538;2023-04-15T15:20:31;22.70;40.10
32706;DHT22;19094;50.972;3.538;2023-04-15T15:22:57;22.70;40.60
32706;DHT22;19094;50.972;3.538;2023-04-15T15:25:23;22.70;40.40
32706;DHT22;19094;50.972;3.538;2023-04-15T15:27:49;22.80;40.50
32706;DHT22;19094;50.972;3.538;2023-04-15T15:30:15;22.80;40.40
32706;DHT22;19094;50.972;3.538;2023-04-15T15:32:41;22.80;40.20
32706;DHT22;19094;50.972;3.538;2023-04-15T15:35:08;22.90;40.70
32706;DHT22;19094;50.972;3.538;2023-04-15T15:37:37;22.80;40.90
32706;DHT22;19094;50.972;3.538;2023-04-15T15:40:06;22.70;40.50
32706;DHT22;19094;50.972;3.538;2023-04-15T15:42:32;22.70;41.60
32706;DHT22;19094;50.972;3.538;2023-04-15T15:44:58;22.70;41.10
32706;DHT22;19094;50.972;3.538;2023-04-15T15:47:24;22.60;41.30
32706;DHT22;19094;50.972;3.538;2023-04-15T15:49:53;22.60;41.60
32706;DHT22;19094;50.972;3.538;2023-04-15T15:52:19;22.60;40.30